sensor_id;sensor_type;location;lat;lon;timestamp;pressure;altitude;pressure_sealevel;temperature;humidity
42385;BME280;28042;43.986;22.860;2023-02-12T00:01:12;102355.50;;;1.28;66.66
42385;BME280;28042;43.986;22.860;2023-02-12T00:03:37;102361.38;;;1.35;66.00
42385;BME280;28042;43.986;22.860;2023-02-12T00:06:03;102357.81;;;1.49;65.39
42385;BME280;28042;43.986;22.860;2023-02-12T00:08:28;102346.47;;;1.58;64.43
42385;BME280;28042;43.986;22.860;2023-02-12T00:10:54;102353.56;;;1.59;64.58
42385;BME280;28042;43.986;22.860;2023-02-12T00:13:19;102345.88;;;1.67;63.88
42385;BME280;28042;43.986;22.860;2023-02-12T00:15:44;102346.03;;;1.64;63.85
42385;BME280;28042;43.986;22.860;2023-02-12T00:18:10;102355.56;;;1.55;64.32
42385;BME280;28042;43.986;22.860;2023-02-12T00:20:36;102352.44;;;1.49;64.28
42385;BME280;28042;43.986;22.860;2023-02-12T00:23:01;102350.50;;;1.51;64.67
42385;BME280;28042;43.986;22.860;2023-02-12T00:25:27;102346.53;;;1.56;64.07
42385;BME280;28042;43.986;22.860;2023-02-12T00:27:52;102347.59;;;1.54;63.64
42385;BME280;28042;43.986;22.860;2023-02-12T00:30:19;102331.25;;;1.71;62.92
42385;BME280;28042;43.986;22.860;2023-02-12T00:32:44;102328.63;;;2.11;60.30
42385;BME280;28042;43.986;22.860;2023-02-12T00:35:10;102317.91;;;2.36;58.66
42385;BME280;28042;43.986;22.860;2023-02-12T00:37:35;102316.09;;;2.49;58.46
42385;BME280;28042;43.986;22.860;2023-02-12T00:40:01;102318.13;;;2.59;57.56
42385;BME280;28042;43.986;22.860;2023-02-12T00:42:26;102305.66;;;2.58;57.97
42385;BME280;28042;43.986;22.860;2023-02-12T00:44:51;102304.34;;;2.50;58.17
42385;BME280;28042;43.986;22.860;2023-02-12T00:47:17;102304.97;;;2.41;58.44
42385;BME280;28042;43.986;22.860;2023-02-12T00:49:42;102293.78;;;2.35;58.66
42385;BME280;28042;43.986;22.860;2023-02-12T00:52:07;102306.81;;;2.28;58.87
42385;BME280;28042;43.986;22.860;2023-02-12T00:54:33;102313.78;;;2.31;59.23
42385;BME280;28042;43.986;22.860;2023-02-12T00:56:58;102316.81;;;2.26;59.25
42385;BME280;28042;43.986;22.860;2023-02-12T00:59:24;102317.06;;;2.36;58.59
42385;BME280;28042;43.986;22.860;2023-02-12T01:01:50;102318.13;;;2.46;58.33
42385;BME280;28042;43.986;22.860;2023-02-12T01:04:16;102306.41;;;2.60;57.27
42385;BME280;28042;43.986;22.860;2023-02-12T01:06:42;102288.00;;;2.53;57.83
42385;BME280;28042;43.986;22.860;2023-02-12T01:09:07;102302.84;;;2.46;57.74
42385;BME280;28042;43.986;22.860;2023-02-12T01:11:33;102314.03;;;2.40;58.46
42385;BME280;28042;43.986;22.860;2023-02-12T01:13:58;102317.34;;;2.31;58.94
42385;BME280;28042;43.986;22.860;2023-02-12T01:16:24;102322.22;;;2.26;59.39
42385;BME280;28042;43.986;22.860;2023-02-12T01:18:50;102314.63;;;2.18;59.73
42385;BME280;28042;43.986;22.860;2023-02-12T01:21:17;102317.84;;;2.11;59.91
42385;BME280;28042;43.986;22.860;2023-02-12T01:23:43;102325.34;;;2.06;60.32
42385;BME280;28042;43.986;22.860;2023-02-12T01:26:09;102315.97;;;1.98;61.16
42385;BME280;28042;43.986;22.860;2023-02-12T01:28:38;102319.47;;;1.86;61.07
42385;BME280;28042;43.986;22.860;2023-02-12T01:31:07;102310.44;;;1.87;61.05
42385;BME280;28042;43.986;22.860;2023-02-12T01:33:32;102324.88;;;1.86;61.28
42385;BME280;28042;43.986;22.860;2023-02-12T01:35:58;102325.50;;;1.90;60.43
42385;BME280;28042;43.986;22.860;2023-02-12T01:38:23;102333.69;;;1.88;60.85
42385;BME280;28042;43.986;22.860;2023-02-12T01:40:48;102332.31;;;1.95;60.41
42385;BME280;28042;43.986;22.860;2023-02-12T01:43:14;102329.66;;;2.08;60.00
42385;BME280;28042;43.986;22.860;2023-02-12T01:48:05;102319.31;;;2.02;60.49
42385;BME280;28042;43.986;22.860;2023-02-12T01:50:31;102319.69;;;2.10;59.93
42385;BME280;28042;43.986;22.860;2023-02-12T01:52:56;102310.31;;;2.16;59.39
42385;BME280;28042;43.986;22.860;2023-02-12T01:55:22;102322.50;;;2.21;59.19
42385;BME280;28042;43.986;22.860;2023-02-12T01:57:48;102308.59;;;2.15;59.25
42385;BME280;28042;43.986;22.860;2023-02-12T02:00:15;102305.38;;;2.10;59.97
42385;BME280;28042;43.986;22.860;2023-02-12T02:02:42;102287.91;;;2.03;60.00
42385;BME280;28042;43.986;22.860;2023-02-12T02:05:09;102296.94;;;2.02;59.99
42385;BME280;28042;43.986;22.860;2023-02-12T02:07:36;102287.91;;;2.03;59.82
42385;BME280;28042;43.986;22.860;2023-02-12T02:10:02;102296.72;;;2.05;59.65
42385;BME280;28042;43.986;22.860;2023-02-12T02:12:28;102294.78;;;2.07;58.84
42385;BME280;28042;43.986;22.860;2023-02-12T02:15:13;102310.06;;;2.06;59.26
42385;BME280;28042;43.986;22.860;2023-02-12T02:33:10;102321.84;;;1.91;60.61
42385;BME280;28042;43.986;22.860;2023-02-12T02:38:20;102333.91;;;1.85;61.03
42385;BME280;28042;43.986;22.860;2023-02-12T02:40:54;102326.59;;;1.87;61.52
42385;BME280;28042;43.986;22.860;2023-02-12T02:43:31;102335.63;;;1.86;61.35
42385;BME280;28042;43.986;22.860;2023-02-12T02:46:00;102331.97;;;1.87;61.14
42385;BME280;28042;43.986;22.860;2023-02-12T02:48:37;102324.88;;;1.86;61.30
42385;BME280;28042;43.986;22.860;2023-02-12T02:51:07;102326.97;;;1.81;61.66
42385;BME280;28042;43.986;22.860;2023-02-12T02:53:36;102319.47;;;1.86;61.57
42385;BME280;28042;43.986;22.860;2023-02-12T02:56:04;102324.00;;;1.86;61.47
42385;BME280;28042;43.986;22.860;2023-02-12T02:58:33;102333.50;;;1.91;61.71
42385;BME280;28042;43.986;22.860;2023-02-12T03:01:01;102334.38;;;1.92;61.17
42385;BME280;28042;43.986;22.860;2023-02-12T03:05:58;102335.22;;;1.92;61.85
42385;BME280;28042;43.986;22.860;2023-02-12T03:08:27;102338.88;;;1.91;62.40
42385;BME280;28042;43.986;22.860;2023-02-12T03:11:06;102328.97;;;1.92;62.70
42385;BME280;28042;43.986;22.860;2023-02-12T03:16:26;102326.69;;;2.13;61.08
42385;BME280;28042;43.986;22.860;2023-02-12T03:21:27;102329.44;;;2.51;59.24
42385;BME280;28042;43.986;22.860;2023-02-12T03:23:59;102325.25;;;2.47;59.23
42385;BME280;28042;43.986;22.860;2023-02-12T03:26:49;102332.81;;;2.54;59.17
42385;BME280;28042;43.986;22.860;2023-02-12T03:29:12;102333.88;;;2.65;57.93
42385;BME280;28042;43.986;22.860;2023-02-12T03:34:49;102342.75;;;2.92;55.35
42385;BME280;28042;43.986;22.860;2023-02-12T03:37:18;102336.81;;;3.00;55.45
42385;BME280;28042;43.986;22.860;2023-02-12T03:42:26;102341.53;;;3.09;54.88
42385;BME280;28042;43.986;22.860;2023-02-12T03:45:20;102335.72;;;3.02;55.57
42385;BME280;28042;43.986;22.860;2023-02-12T03:47:55;102338.66;;;2.99;55.45
42385;BME280;28042;43.986;22.860;2023-02-12T03:53:29;102343.72;;;2.91;56.53
42385;BME280;28042;43.986;22.860;2023-02-12T03:55:57;102343.38;;;2.83;56.41
42385;BME280;28042;43.986;22.860;2023-02-12T03:58:24;102345.44;;;2.79;56.32
42385;BME280;28042;43.986;22.860;2023-02-12T04:00:51;102340.78;;;2.69;56.40
42385;BME280;28042;43.986;22.860;2023-02-12T04:03:17;102341.75;;;2.68;57.18
42385;BME280;28042;43.986;22.860;2023-02-12T04:05:42;102352.63;;;2.66;56.98
42385;BME280;28042;43.986;22.860;2023-02-12T04:08:08;102344.03;;;2.61;57.08
42385;BME280;28042;43.986;22.860;2023-02-12T04:13:25;102348.97;;;2.67;56.84
42385;BME280;28042;43.986;22.860;2023-02-12T04:18:47;102352.53;;;2.68;57.23
42385;BME280;28042;43.986;22.860;2023-02-12T04:24:06;102353.06;;;2.60;57.76
42385;BME280;28042;43.986;22.860;2023-02-12T04:29:09;102352.63;;;2.53;57.87
42385;BME280;28042;43.986;22.860;2023-02-12T04:31:43;102348.09;;;2.54;57.46
42385;BME280;28042;43.986;22.860;2023-02-12T04:36:48;102354.53;;;2.51;57.91
42385;BME280;28042;43.986;22.860;2023-02-12T04:39:17;102351.53;;;2.43;58.38
42385;BME280;28042;43.986;22.860;2023-02-12T04:41:43;102348.91;;;2.29;58.91
42385;BME280;28042;43.986;22.860;2023-02-12T04:44:28;102344.16;;;2.20;59.18
42385;BME280;28042;43.986;22.860;2023-02-12T04:46:54;102338.19;;;2.15;59.65
42385;BME280;28042;43.986;22.860;2023-02-12T04:49:20;102344.00;;;2.09;59.99
42385;BME280;28042;43.986;22.860;2023-02-12T04:51:46;102349.56;;;2.06;59.59
42385;BME280;28042;43.986;22.860;2023-02-12T04:54:12;102346.41;;;1.99;60.14
42385;BME280;28042;43.986;22.860;2023-02-12T04:56:37;102351.16;;;1.95;60.87
42385;BME280;28042;43.986;22.860;2023-02-12T04:59:03;102347.50;;;1.96;60.36
42385;BME280;28042;43.986;22.860;2023-02-12T05:01:28;102351.72;;;2.01;60.70
42385;BME280;28042;43.986;22.860;2023-02-12T05:03:54;102358.16;;;1.98;60.62
42385;BME280;28042;43.986;22.860;2023-02-12T05:06:19;102359.97;;;1.97;61.42
42385;BME280;28042;43.986;22.860;2023-02-12T05:08:44;102359.81;;;2.01;61.35
42385;BME280;28042;43.986;22.860;2023-02-12T05:11:10;102361.53;;;2.02;61.26
42385;BME280;28042;43.986;22.860;2023-02-12T05:13:35;102361.53;;;2.02;61.36
42385;BME280;28042;43.986;22.860;2023-02-12T05:16:04;102364.97;;;2.04;61.48
42385;BME280;28042;43.986;22.860;2023-02-12T05:18:30;102363.25;;;2.03;61.97
42385;BME280;28042;43.986;22.860;2023-02-12T05:20:59;102364.97;;;2.04;61.77
42385;BME280;28042;43.986;22.860;2023-02-12T05:23:29;102365.72;;;2.06;62.28
42385;BME280;28042;43.986;22.860;2023-02-12T05:25:57;102375.94;;;2.01;62.79
42385;BME280;28042;43.986;22.860;2023-02-12T05:28:22;102375.09;;;2.00;63.05
42385;BME280;28042;43.986;22.860;2023-02-12T05:30:47;102382.84;;;2.05;62.89
42385;BME280;28042;43.986;22.860;2023-02-12T05:33:13;102373.03;;;2.04;63.52
42385;BME280;28042;43.986;22.860;2023-02-12T05:35:38;102374.56;;;2.08;62.95
42385;BME280;28042;43.986;22.860;2023-02-12T05:38:03;102385.44;;;2.06;62.91
42385;BME280;28042;43.986;22.860;2023-02-12T05:40:29;102384.38;;;2.09;63.32
42385;BME280;28042;43.986;22.860;2023-02-12T05:42:54;102400.44;;;2.10;63.84
42385;BME280;28042;43.986;22.860;2023-02-12T05:45:19;102401.41;;;2.09;63.40
42385;BME280;28042;43.986;22.860;2023-02-12T05:47:45;102403.13;;;2.10;64.01
42385;BME280;28042;43.986;22.860;2023-02-12T05:50:10;102403.97;;;2.11;63.87
42385;BME280;28042;43.986;22.860;2023-02-12T05:52:35;102412.53;;;2.17;64.74
42385;BME280;28042;43.986;22.860;2023-02-12T05:55:01;102418.19;;;2.13;65.14
42385;BME280;28042;43.986;22.860;2023-02-12T05:57:26;102419.53;;;2.20;65.06
42385;BME280;28042;43.986;22.860;2023-02-12T05:59:51;102421.81;;;2.26;65.17
42385;BME280;28042;43.986;22.860;2023-02-12T06:02:17;102421.72;;;2.28;65.50
42385;BME280;28042;43.986;22.860;2023-02-12T06:04:42;102431.28;;;2.32;65.60
42385;BME280;28042;43.986;22.860;2023-02-12T06:07:07;102431.53;;;2.41;65.17
42385;BME280;28042;43.986;22.860;2023-02-12T06:09:33;102449.88;;;2.49;64.91
42385;BME280;28042;43.986;22.860;2023-02-12T06:11:59;102447.25;;;2.62;64.45
42385;BME280;28042;43.986;22.860;2023-02-12T06:14:24;102456.56;;;2.70;64.44
42385;BME280;28042;43.986;22.860;2023-02-12T06:16:50;102448.34;;;2.72;64.85
42385;BME280;28042;43.986;22.860;2023-02-12T06:19:16;102456.22;;;2.75;64.32
42385;BME280;28042;43.986;22.860;2023-02-12T06:21:41;102451.69;;;2.75;64.60
42385;BME280;28042;43.986;22.860;2023-02-12T06:24:07;102454.63;;;2.85;65.39
42385;BME280;28042;43.986;22.860;2023-02-12T06:26:32;102463.28;;;2.90;65.04
42385;BME280;28042;43.986;22.860;2023-02-12T06:28:57;102469.53;;;3.03;65.06
42385;BME280;28042;43.986;22.860;2023-02-12T06:31:27;102463.19;;;3.04;65.53
42385;BME280;28042;43.986;22.860;2023-02-12T06:33:53;102461.78;;;3.11;65.42
42385;BME280;28042;43.986;22.860;2023-02-12T06:36:19;102458.34;;;3.09;65.69
42385;BME280;28042;43.986;22.860;2023-02-12T06:38:44;102465.44;;;3.10;66.40
42385;BME280;28042;43.986;22.860;2023-02-12T06:41:09;102463.31;;;3.16;66.97
42385;BME280;28042;43.986;22.860;2023-02-12T06:43:35;102465.78;;;3.19;67.61
42385;BME280;28042;43.986;22.860;2023-02-12T06:46:01;102460.72;;;3.27;67.70
42385;BME280;28042;43.986;22.860;2023-02-12T06:48:27;102478.22;;;3.34;67.79
42385;BME280;28042;43.986;22.860;2023-02-12T06:50:53;102487.91;;;3.36;67.88
42385;BME280;28042;43.986;22.860;2023-02-12T06:53:18;102492.25;;;3.39;68.36
42385;BME280;28042;43.986;22.860;2023-02-12T06:55:43;102493.97;;;3.53;68.50
42385;BME280;28042;43.986;22.860;2023-02-12T06:58:09;102494.63;;;3.56;68.30
42385;BME280;28042;43.986;22.860;2023-02-12T07:00:34;102510.69;;;3.58;68.52
42385;BME280;28042;43.986;22.860;2023-02-12T07:02:59;102511.09;;;3.64;68.41
42385;BME280;28042;43.986;22.860;2023-02-12T07:05:25;102511.88;;;3.66;68.66
42385;BME280;28042;43.986;22.860;2023-02-12T07:07:50;102517.69;;;3.73;68.74
42385;BME280;28042;43.986;22.860;2023-02-12T07:10:16;102525.91;;;3.72;69.10
42385;BME280;28042;43.986;22.860;2023-02-12T07:12:41;102522.78;;;3.78;69.23
42385;BME280;28042;43.986;22.860;2023-02-12T07:15:07;102518.47;;;3.75;69.32
42385;BME280;28042;43.986;22.860;2023-02-12T07:17:32;102520.06;;;3.78;69.65
42385;BME280;28042;43.986;22.860;2023-02-12T07:19:57;102527.88;;;3.82;70.36
42385;BME280;28042;43.986;22.860;2023-02-12T07:22:23;102533.25;;;3.82;70.58
42385;BME280;28042;43.986;22.860;2023-02-12T07:24:48;102535.38;;;3.90;70.53
42385;BME280;28042;43.986;22.860;2023-02-12T07:27:13;102537.44;;;3.99;70.70
42385;BME280;28042;43.986;22.860;2023-02-12T07:29:39;102535.16;;;4.06;70.80
42385;BME280;28042;43.986;22.860;2023-02-12T07:32:04;102541.44;;;4.06;70.40
42385;BME280;28042;43.986;22.860;2023-02-12T07:34:30;102547.25;;;4.13;71.09
42385;BME280;28042;43.986;22.860;2023-02-12T07:36:55;102544.31;;;4.29;70.65
42385;BME280;28042;43.986;22.860;2023-02-12T07:39:20;102537.13;;;4.40;70.42
42385;BME280;28042;43.986;22.860;2023-02-12T07:41:45;102532.91;;;4.49;70.63
42385;BME280;28042;43.986;22.860;2023-02-12T07:44:11;102546.47;;;4.60;70.70
42385;BME280;28042;43.986;22.860;2023-02-12T07:46:40;102541.88;;;4.73;69.87
42385;BME280;28042;43.986;22.860;2023-02-12T07:49:06;102547.63;;;4.93;69.02
42385;BME280;28042;43.986;22.860;2023-02-12T07:51:35;102552.41;;;5.13;67.48
42385;BME280;28042;43.986;22.860;2023-02-12T07:54:01;102554.41;;;5.22;66.29
42385;BME280;28042;43.986;22.860;2023-02-12T07:56:27;102558.72;;;5.25;65.56
42385;BME280;28042;43.986;22.860;2023-02-12T07:58:57;102550.47;;;5.15;64.96
42385;BME280;28042;43.986;22.860;2023-02-12T08:01:27;102561.00;;;5.07;65.28
42385;BME280;28042;43.986;22.860;2023-02-12T08:03:52;102561.50;;;5.12;65.19
42385;BME280;28042;43.986;22.860;2023-02-12T08:06:19;102559.31;;;5.17;64.85
42385;BME280;28042;43.986;22.860;2023-02-12T08:08:45;102565.34;;;5.21;65.22
42385;BME280;28042;43.986;22.860;2023-02-12T08:11:11;102568.03;;;5.21;64.97
42385;BME280;28042;43.986;22.860;2023-02-12T08:13:37;102564.75;;;5.28;65.51
42385;BME280;28042;43.986;22.860;2023-02-12T08:16:04;102566.25;;;5.32;65.51
42385;BME280;28042;43.986;22.860;2023-02-12T08:18:31;102565.56;;;5.42;65.41
42385;BME280;28042;43.986;22.860;2023-02-12T08:21:00;102567.28;;;5.43;65.18
42385;BME280;28042;43.986;22.860;2023-02-12T08:23:26;102573.16;;;5.36;64.93
42385;BME280;28042;43.986;22.860;2023-02-12T08:25:52;102576.59;;;5.38;65.06
42385;BME280;28042;43.986;22.860;2023-02-12T08:28:17;102570.81;;;5.32;64.99
42385;BME280;28042;43.986;22.860;2023-02-12T08:30:42;102575.81;;;5.25;65.35
42385;BME280;28042;43.986;22.860;2023-02-12T08:33:07;102577.22;;;5.42;65.26
42385;BME280;28042;43.986;22.860;2023-02-12T08:35:33;102596.75;;;5.34;65.57
42385;BME280;28042;43.986;22.860;2023-02-12T08:37:58;102579.06;;;5.30;65.86
42385;BME280;28042;43.986;22.860;2023-02-12T08:40:23;102590.50;;;5.34;65.68
42385;BME280;28042;43.986;22.860;2023-02-12T08:42:49;102587.41;;;5.38;66.05
42385;BME280;28042;43.986;22.860;2023-02-12T08:45:14;102583.91;;;5.49;66.12
42385;BME280;28042;43.986;22.860;2023-02-12T08:47:39;102596.50;;;5.37;65.95
42385;BME280;28042;43.986;22.860;2023-02-12T08:50:05;102597.16;;;5.41;65.98
42385;BME280;28042;43.986;22.860;2023-02-12T08:52:30;102600.75;;;5.53;65.41
42385;BME280;28042;43.986;22.860;2023-02-12T08:54:56;102596.22;;;5.64;64.13
42385;BME280;28042;43.986;22.860;2023-02-12T08:57:21;102600.56;;;5.67;64.28
42385;BME280;28042;43.986;22.860;2023-02-12T08:59:47;102593.66;;;5.63;64.04
42385;BME280;28042;43.986;22.860;2023-02-12T09:02:12;102597.81;;;5.56;64.22
42385;BME280;28042;43.986;22.860;2023-02-12T09:04:38;102602.00;;;5.49;64.68
42385;BME280;28042;43.986;22.860;2023-02-12T09:07:05;102621.72;;;5.62;65.41
42385;BME280;28042;43.986;22.860;2023-02-12T09:09:30;102623.75;;;5.82;64.52
42385;BME280;28042;43.986;22.860;2023-02-12T09:11:55;102623.41;;;5.98;64.06
42385;BME280;28042;43.986;22.860;2023-02-12T09:14:21;102618.91;;;6.10;63.80
42385;BME280;28042;43.986;22.860;2023-02-12T09:16:47;102609.91;;;6.09;63.37
42385;BME280;28042;43.986;22.860;2023-02-12T09:19:13;102618.78;;;6.00;62.92
42385;BME280;28042;43.986;22.860;2023-02-12T09:21:38;102627.88;;;6.10;62.86
42385;BME280;28042;43.986;22.860;2023-02-12T09:24:03;102629.25;;;6.27;62.75
42385;BME280;28042;43.986;22.860;2023-02-12T09:26:29;102631.22;;;6.47;62.76
42385;BME280;28042;43.986;22.860;2023-02-12T09:28:54;102641.19;;;6.58;61.32
42385;BME280;28042;43.986;22.860;2023-02-12T09:31:21;102640.22;;;6.59;60.32
42385;BME280;28042;43.986;22.860;2023-02-12T09:33:50;102635.09;;;6.99;60.82
42385;BME280;28042;43.986;22.860;2023-02-12T09:36:15;102638.03;;;7.51;59.49
42385;BME280;28042;43.986;22.860;2023-02-12T09:38:41;102645.25;;;7.61;58.09
42385;BME280;28042;43.986;22.860;2023-02-12T09:44:04;102631.31;;;7.34;57.76
42385;BME280;28042;43.986;22.860;2023-02-12T09:51:51;102653.16;;;6.78;58.81
42385;BME280;28042;43.986;22.860;2023-02-12T09:54:22;102665.22;;;6.74;59.32
42385;BME280;28042;43.986;22.860;2023-02-12T09:56:50;102662.28;;;6.88;58.73
42385;BME280;28042;43.986;22.860;2023-02-12T09:59:22;102669.78;;;6.96;58.73
42385;BME280;28042;43.986;22.860;2023-02-12T10:01:50;102663.75;;;6.81;58.46
42385;BME280;28042;43.986;22.860;2023-02-12T10:04:15;102661.50;;;6.86;57.21
42385;BME280;28042;43.986;22.860;2023-02-12T10:06:42;102665.22;;;6.85;57.30
42385;BME280;28042;43.986;22.860;2023-02-12T10:09:17;102671.72;;;6.94;56.86
42385;BME280;28042;43.986;22.860;2023-02-12T10:17:01;102680.59;;;7.07;55.88
42385;BME280;28042;43.986;22.860;2023-02-12T10:27:24;102668.31;;;7.35;56.99
42385;BME280;28042;43.986;22.860;2023-02-12T10:29:55;102679.22;;;7.24;56.82
42385;BME280;28042;43.986;22.860;2023-02-12T10:32:27;102665.31;;;7.06;56.24
42385;BME280;28042;43.986;22.860;2023-02-12T10:34:55;102666.72;;;6.78;57.55
42385;BME280;28042;43.986;22.860;2023-02-12T10:37:36;102668.19;;;6.82;58.26
42385;BME280;28042;43.986;22.860;2023-02-12T10:40:18;102676.31;;;6.93;58.42
42385;BME280;28042;43.986;22.860;2023-02-12T10:42:49;102680.84;;;7.15;57.54
42385;BME280;28042;43.986;22.860;2023-02-12T10:45:17;102672.94;;;7.12;57.93
42385;BME280;28042;43.986;22.860;2023-02-12T10:47:43;102673.03;;;7.33;57.13
42385;BME280;28042;43.986;22.860;2023-02-12T10:55:22;102674.47;;;7.37;56.48
42385;BME280;28042;43.986;22.860;2023-02-12T10:57:47;102669.66;;;7.41;56.47
42385;BME280;28042;43.986;22.860;2023-02-12T11:00:19;102676.00;;;7.30;56.44
42385;BME280;28042;43.986;22.860;2023-02-12T11:02:58;102678.72;;;7.30;57.34
42385;BME280;28042;43.986;22.860;2023-02-12T11:05:24;102678.41;;;7.44;57.63
42385;BME280;28042;43.986;22.860;2023-02-12T11:07:52;102686.94;;;7.40;56.59
42385;BME280;28042;43.986;22.860;2023-02-12T11:10:25;102686.97;;;7.60;57.08
42385;BME280;28042;43.986;22.860;2023-02-12T11:12:51;102681.47;;;7.83;56.30
42385;BME280;28042;43.986;22.860;2023-02-12T11:15:18;102682.13;;;7.96;55.36
42385;BME280;28042;43.986;22.860;2023-02-12T11:17:45;102688.25;;;8.09;54.85
42385;BME280;28042;43.986;22.860;2023-02-12T11:20:20;102689.44;;;8.37;53.97
42385;BME280;28042;43.986;22.860;2023-02-12T11:23:00;102697.13;;;8.53;53.75
42385;BME280;28042;43.986;22.860;2023-02-12T11:25:27;102693.03;;;8.38;54.36
42385;BME280;28042;43.986;22.860;2023-02-12T11:28:01;102699.03;;;8.20;54.46
42385;BME280;28042;43.986;22.860;2023-02-12T11:30:26;102690.19;;;8.07;55.66
42385;BME280;28042;43.986;22.860;2023-02-12T11:32:52;102687.75;;;8.04;56.18
42385;BME280;28042;43.986;22.860;2023-02-12T11:35:19;102695.00;;;7.94;56.69
42385;BME280;28042;43.986;22.860;2023-02-12T11:37:50;102704.59;;;7.98;56.33
42385;BME280;28042;43.986;22.860;2023-02-12T11:40:22;102698.28;;;7.77;56.11
42385;BME280;28042;43.986;22.860;2023-02-12T11:42:49;102708.44;;;7.96;56.50
42385;BME280;28042;43.986;22.860;2023-02-12T11:45:19;102706.13;;;7.91;56.66
42385;BME280;28042;43.986;22.860;2023-02-12T11:47:46;102703.41;;;7.91;56.35
42385;BME280;28042;43.986;22.860;2023-02-12T11:50:25;102708.00;;;7.79;56.00
42385;BME280;28042;43.986;22.860;2023-02-12T11:52:52;102697.84;;;7.92;56.31
42385;BME280;28042;43.986;22.860;2023-02-12T11:55:21;102694.00;;;7.95;56.53
42385;BME280;28042;43.986;22.860;2023-02-12T11:57:51;102690.78;;;7.90;55.51
42385;BME280;28042;43.986;22.860;2023-02-12T12:00:34;102703.44;;;7.80;55.05
42385;BME280;28042;43.986;22.860;2023-02-12T12:03:15;102703.28;;;7.60;55.09
42385;BME280;28042;43.986;22.860;2023-02-12T12:05:44;102706.41;;;7.56;55.14
42385;BME280;28042;43.986;22.860;2023-02-12T12:08:14;102696.41;;;7.56;54.86
42385;BME280;28042;43.986;22.860;2023-02-12T12:10:49;102703.25;;;7.28;54.62
42385;BME280;28042;43.986;22.860;2023-02-12T12:13:17;102697.22;;;7.25;55.31
42385;BME280;28042;43.986;22.860;2023-02-12T12:15:47;102700.78;;;7.25;54.94
42385;BME280;28042;43.986;22.860;2023-02-12T12:26:41;102709.22;;;7.54;52.39
42385;BME280;28042;43.986;22.860;2023-02-12T12:32:05;102715.06;;;7.82;51.43
42385;BME280;28042;43.986;22.860;2023-02-12T12:34:31;102714.59;;;7.77;50.60
42385;BME280;28042;43.986;22.860;2023-02-12T12:37:01;102712.19;;;7.51;50.69
42385;BME280;28042;43.986;22.860;2023-02-12T12:50:08;102733.00;;;7.30;49.38
42385;BME280;28042;43.986;22.860;2023-02-12T13:00:57;102744.00;;;6.72;52.91
42385;BME280;28042;43.986;22.860;2023-02-12T13:03:38;102747.06;;;6.68;53.28
42385;BME280;28042;43.986;22.860;2023-02-12T13:06:17;102743.63;;;6.55;52.98
42385;BME280;28042;43.986;22.860;2023-02-12T13:27:15;102768.03;;;6.77;52.74
42385;BME280;28042;43.986;22.860;2023-02-12T13:29:52;102764.09;;;7.03;52.58
42385;BME280;28042;43.986;22.860;2023-02-12T13:32:40;102764.59;;;7.20;52.19
42385;BME280;28042;43.986;22.860;2023-02-12T13:35:07;102764.84;;;7.17;52.20
42385;BME280;28042;43.986;22.860;2023-02-12T13:37:36;102761.28;;;7.05;52.39
42385;BME280;28042;43.986;22.860;2023-02-12T13:40:04;102767.06;;;7.00;51.83
42385;BME280;28042;43.986;22.860;2023-02-12T13:42:36;102767.69;;;6.70;52.50
42385;BME280;28042;43.986;22.860;2023-02-12T13:47:49;102772.97;;;6.94;52.03
42385;BME280;28042;43.986;22.860;2023-02-12T13:52:48;102792.91;;;6.60;53.30
42385;BME280;28042;43.986;22.860;2023-02-12T14:03:15;102783.50;;;6.30;53.77
42385;BME280;28042;43.986;22.860;2023-02-12T14:05:47;102793.06;;;6.23;53.96
42385;BME280;28042;43.986;22.860;2023-02-12T14:08:25;102791.34;;;6.22;54.19
42385;BME280;28042;43.986;22.860;2023-02-12T14:11:02;102800.19;;;6.13;54.66
42385;BME280;28042;43.986;22.860;2023-02-12T14:13:28;102803.16;;;6.21;54.97
42385;BME280;28042;43.986;22.860;2023-02-12T14:15:58;102813.06;;;6.33;54.44
42385;BME280;28042;43.986;22.860;2023-02-12T14:18:42;102808.28;;;6.37;54.19
42385;BME280;28042;43.986;22.860;2023-02-12T14:23:33;102813.84;;;6.46;54.27
42385;BME280;28042;43.986;22.860;2023-02-12T14:28:29;102805.84;;;6.10;55.40
42385;BME280;28042;43.986;22.860;2023-02-12T14:33:41;102812.72;;;6.03;57.19
42385;BME280;28042;43.986;22.860;2023-02-12T14:49:17;102815.53;;;5.88;59.01
42385;BME280;28042;43.986;22.860;2023-02-12T14:54:35;102821.84;;;5.65;58.86
42385;BME280;28042;43.986;22.860;2023-02-12T14:57:05;102831.03;;;5.62;59.80
42385;BME280;28042;43.986;22.860;2023-02-12T14:59:34;102827.91;;;5.56;60.57
42385;BME280;28042;43.986;22.860;2023-02-12T15:02:01;102834.53;;;5.52;61.43
42385;BME280;28042;43.986;22.860;2023-02-12T15:04:30;102831.81;;;5.52;61.59
42385;BME280;28042;43.986;22.860;2023-02-12T15:07:06;102836.78;;;5.58;61.73
42385;BME280;28042;43.986;22.860;2023-02-12T15:12:59;102852.84;;;5.35;63.41
42385;BME280;28042;43.986;22.860;2023-02-12T15:15:22;102849.41;;;5.33;63.64
42385;BME280;28042;43.986;22.860;2023-02-12T15:17:57;102855.47;;;5.24;63.92
42385;BME280;28042;43.986;22.860;2023-02-12T15:20:24;102855.91;;;5.18;64.30
42385;BME280;28042;43.986;22.860;2023-02-12T15:22:49;102855.06;;;5.05;64.22
42385;BME280;28042;43.986;22.860;2023-02-12T15:25:28;102853.00;;;4.96;65.35
42385;BME280;28042;43.986;22.860;2023-02-12T15:28:00;102855.06;;;4.79;66.82
42385;BME280;28042;43.986;22.860;2023-02-12T15:30:28;102860.66;;;4.64;67.44
42385;BME280;28042;43.986;22.860;2023-02-12T15:32:54;102869.28;;;4.56;68.75
42385;BME280;28042;43.986;22.860;2023-02-12T15:35:22;102875.00;;;4.51;69.51
42385;BME280;28042;43.986;22.860;2023-02-12T15:37:48;102880.84;;;4.45;70.17
42385;BME280;28042;43.986;22.860;2023-02-12T15:40:14;102886.56;;;4.41;70.94